createdAt,value
2023-04-07T00:00:00.108Z,24.20
2023-04-07T00:02:28.640Z,24.20
2023-04-07T00:04:58.485Z,23.10
2023-04-07T00:07:26.287Z,23.30
2023-04-07T00:09:53.908Z,24.00
2023-04-07T00:12:21.821Z,25.40
2023-04-07T00:14:49.445Z,24.30
2023-04-07T00:17:17.063Z,23.40
2023-04-07T00:19:44.635Z,23.50
2023-04-07T00:22:12.268Z,24.50
2023-04-07T00:24:39.941Z,22.90
2023-04-07T00:27:07.543Z,23.90
2023-04-07T00:29:35.226Z,24.10
2023-04-07T00:32:02.824Z,23.40
2023-04-07T00:34:30.406Z,23.10
2023-04-07T00:36:58.013Z,24.50
2023-04-07T00:39:27.603Z,23.40
2023-04-07T00:41:56.396Z,23.50
2023-04-07T00:44:24.038Z,25.60
2023-04-07T00:46:51.784Z,24.20
2023-04-07T00:49:19.610Z,24.20
2023-04-07T00:51:47.305Z,25.30
2023-04-07T00:54:15.065Z,24.20
2023-04-07T00:56:43.783Z,22.20
2023-04-07T00:59:11.840Z,23.80
2023-04-07T01:01:59.318Z,22.20
2023-04-07T01:04:33.229Z,22.50
2023-04-07T01:07:08.801Z,22.00
2023-04-07T01:09:47.144Z,23.20
2023-04-07T01:12:26.847Z,23.70
2023-04-07T01:14:59.105Z,22.20
2023-04-07T01:17:39.221Z,22.50
2023-04-07T01:20:08.431Z,22.00
2023-04-07T01:22:47.752Z,21.40
2023-04-07T01:25:51.843Z,22.30
2023-04-07T01:28:57.957Z,21.90
2023-04-07T01:31:26.997Z,24.00
2023-04-07T01:33:56.400Z,24.90
2023-04-07T01:36:24.671Z,24.40
2023-04-07T01:38:52.617Z,25.70
2023-04-07T01:41:21.092Z,26.90
2023-04-07T01:43:49.007Z,27.10
2023-04-07T01:46:16.686Z,26.90
2023-04-07T01:48:44.536Z,27.40
2023-04-07T01:51:17.481Z,27.30
2023-04-07T01:53:49.105Z,29.20
2023-04-07T01:56:16.833Z,28.30
2023-04-07T01:58:47.419Z,31.00
2023-04-07T02:01:17.632Z,28.90
2023-04-07T02:03:56.890Z,30.00
2023-04-07T02:06:31.759Z,29.50
2023-04-07T02:09:04.221Z,30.30
2023-04-07T02:11:32.686Z,29.90
2023-04-07T02:14:04.240Z,30.60
2023-04-07T02:16:34.287Z,30.50
2023-04-07T02:19:03.481Z,31.10
2023-04-07T02:21:33.217Z,30.10
2023-04-07T02:24:02.208Z,30.80
2023-04-07T02:26:35.405Z,28.90
2023-04-07T02:29:04.149Z,30.10
2023-04-07T02:31:32.080Z,30.10
2023-04-07T02:34:01.794Z,28.50
2023-04-07T02:36:29.486Z,29.90
2023-04-07T02:38:57.222Z,31.50
2023-04-07T02:41:24.831Z,31.20
2023-04-07T02:43:56.486Z,29.00
2023-04-07T02:46:24.684Z,30.30
2023-04-07T02:48:52.353Z,27.70
2023-04-07T02:51:19.960Z,26.80
2023-04-07T02:53:47.624Z,28.20
2023-04-07T02:56:17.013Z,29.00
2023-04-07T02:58:44.792Z,28.80
2023-04-07T03:01:12.895Z,26.90
2023-04-07T03:03:42.448Z,26.10
2023-04-07T03:06:17.025Z,27.30
2023-04-07T03:08:59.760Z,27.10
2023-04-07T03:11:27.513Z,25.70
2023-04-07T03:13:56.752Z,27.30
2023-04-07T03:16:24.846Z,26.80
2023-04-07T03:18:59.547Z,25.80
2023-04-07T03:21:28.978Z,24.60
2023-04-07T03:23:56.658Z,24.00
2023-04-07T03:26:24.544Z,24.10
2023-04-07T03:28:52.538Z,24.30
2023-04-07T03:31:20.795Z,23.70
2023-04-07T03:33:50.383Z,25.30
2023-04-07T03:36:18.625Z,24.80
2023-04-07T03:38:47.281Z,25.00
2023-04-07T03:41:15.828Z,26.90
2023-04-07T03:43:43.425Z,26.60
2023-04-07T03:46:11.678Z,26.30
2023-04-07T03:48:39.340Z,27.40
2023-04-07T03:51:08.780Z,28.60
2023-04-07T03:53:36.381Z,27.20
2023-04-07T03:56:14.400Z,26.80
2023-04-07T03:58:50.594Z,28.00
2023-04-07T04:01:24.793Z,28.60
2023-04-07T04:03:52.921Z,28.00
2023-04-07T04:06:31.637Z,29.40
2023-04-07T04:09:06.088Z,28.90
2023-04-07T04:11:36.454Z,28.10
2023-04-07T04:14:04.958Z,30.40
2023-04-07T04:16:35.552Z,29.70
2023-04-07T04:19:05.850Z,30.10
2023-04-07T04:21:33.495Z,30.20
2023-04-07T04:24:01.523Z,30.50
2023-04-07T04:26:29.896Z,30.00
2023-04-07T04:29:00.321Z,29.60
2023-04-07T04:31:28.002Z,29.60
2023-04-07T04:33:56.174Z,29.20
2023-04-07T04:36:25.007Z,30.40
2023-04-07T04:38:56.282Z,28.50
2023-04-07T04:41:24.865Z,28.60
2023-04-07T04:43:52.945Z,29.30
2023-04-07T04:46:23.358Z,29.90
2023-04-07T04:48:52.805Z,28.80
2023-04-07T04:51:21.240Z,29.40
2023-04-07T04:53:53.633Z,31.30
2023-04-07T04:56:23.210Z,29.50
2023-04-07T04:58:51.489Z,31.80
2023-04-07T05:01:38.023Z,29.80
2023-04-07T05:04:10.579Z,34.90
2023-04-07T05:06:41.224Z,31.80
2023-04-07T05:09:11.147Z,32.90
2023-04-07T05:11:42.630Z,29.60
2023-04-07T05:14:10.497Z,29.60
2023-04-07T05:16:40.982Z,28.90
2023-04-07T05:19:11.217Z,28.10
2023-04-07T05:21:38.890Z,28.20
2023-04-07T05:24:09.236Z,29.20
2023-04-07T05:26:37.966Z,27.70
2023-04-07T05:29:06.061Z,28.20
2023-04-07T05:31:37.397Z,26.10
2023-04-07T05:34:07.122Z,25.90
2023-04-07T05:36:36.941Z,26.20
2023-04-07T05:39:04.796Z,25.70
2023-04-07T05:41:33.385Z,26.80
2023-04-07T05:44:01.943Z,27.00
2023-04-07T05:46:30.378Z,28.40
2023-04-07T05:49:00.776Z,28.30
2023-04-07T05:51:33.234Z,26.80
2023-04-07T05:54:05.496Z,26.90
2023-04-07T05:56:33.119Z,27.20
2023-04-07T05:59:01.859Z,26.60
2023-04-07T06:01:29.659Z,26.30
2023-04-07T06:03:58.860Z,25.60
2023-04-07T06:06:28.641Z,26.20
2023-04-07T06:08:56.263Z,25.90
2023-04-07T06:11:25.281Z,26.00
2023-04-07T06:13:54.746Z,26.30
2023-04-07T06:16:22.358Z,26.30
2023-04-07T06:18:50.273Z,26.20
2023-04-07T06:21:17.869Z,26.70
2023-04-07T06:23:45.519Z,26.50
2023-04-07T06:26:13.245Z,27.00
2023-04-07T06:28:41.119Z,27.70
2023-04-07T06:31:09.156Z,27.00
2023-04-07T06:33:37.529Z,27.10
2023-04-07T06:36:05.400Z,27.90
2023-04-07T06:38:33.130Z,27.40
2023-04-07T06:41:00.776Z,28.00
2023-04-07T06:43:28.570Z,27.60
2023-04-07T06:46:01.596Z,28.50
2023-04-07T06:48:29.366Z,27.60
2023-04-07T06:50:56.971Z,26.90
2023-04-07T06:53:24.573Z,28.60
2023-04-07T06:55:52.150Z,28.40
2023-04-07T06:58:19.780Z,27.80
2023-04-07T07:00:47.393Z,27.90
2023-04-07T07:03:15.150Z,28.20
2023-04-07T07:05:42.896Z,28.00
2023-04-07T07:08:10.569Z,29.10
2023-04-07T07:10:38.193Z,28.10
2023-04-07T07:13:06.184Z,29.90
2023-04-07T07:15:33.839Z,30.60
2023-04-07T07:18:01.520Z,29.80
2023-04-07T07:20:29.340Z,29.20
2023-04-07T07:22:56.988Z,30.60
2023-04-07T07:25:27.051Z,30.00
2023-04-07T07:27:54.727Z,30.10
2023-04-07T07:30:23.577Z,30.20
2023-04-07T07:32:51.373Z,30.10
2023-04-07T07:35:19.791Z,29.70
2023-04-07T07:37:47.512Z,30.10
2023-04-07T07:40:15.615Z,30.10
2023-04-07T07:42:43.208Z,30.10
2023-04-07T07:45:12.101Z,30.80
2023-04-07T07:47:40.900Z,31.20
2023-04-07T07:50:08.855Z,31.40
2023-04-07T07:52:36.906Z,31.30
2023-04-07T07:55:04.858Z,32.50
2023-04-07T07:57:32.725Z,33.30
2023-04-07T08:00:00.346Z,31.50
2023-04-07T08:02:31.471Z,32.70
2023-04-07T08:05:00.111Z,34.00
2023-04-07T08:07:27.902Z,33.20
2023-04-07T08:09:55.794Z,33.50
2023-04-07T08:12:23.443Z,31.70
2023-04-07T08:14:51.092Z,30.10
2023-04-07T08:17:18.717Z,30.90
2023-04-07T08:19:46.388Z,31.80
2023-04-07T08:22:14.002Z,31.70
2023-04-07T08:24:43.173Z,28.10
2023-04-07T08:27:10.924Z,31.60
2023-04-07T08:29:38.567Z,30.00
2023-04-07T08:32:06.287Z,28.00
2023-04-07T08:34:33.950Z,28.40
2023-04-07T08:37:01.531Z,28.90
2023-04-07T08:39:29.188Z,29.40
2023-04-07T08:41:57.634Z,28.90
2023-04-07T08:44:26.194Z,33.00
2023-04-07T08:46:57.142Z,33.70
2023-04-07T08:49:29.629Z,34.80
2023-04-07T08:51:59.388Z,31.60
2023-04-07T08:54:28.522Z,33.70
2023-04-07T08:56:56.506Z,32.60
2023-04-07T08:59:28.462Z,34.00
2023-04-07T09:01:56.788Z,33.70
2023-04-07T09:04:25.109Z,33.60
2023-04-07T09:06:52.698Z,33.60
2023-04-07T09:09:20.365Z,32.70
2023-04-07T09:11:48.426Z,34.00
2023-04-07T09:14:16.393Z,32.60
2023-04-07T09:16:44.084Z,33.50
2023-04-07T09:19:11.731Z,34.90
2023-04-07T09:21:52.889Z,31.10
2023-04-07T09:24:25.907Z,31.90
2023-04-07T09:27:17.604Z,33.80
2023-04-07T09:29:47.582Z,33.00
2023-04-07T09:32:38.655Z,32.10
2023-04-07T09:35:07.038Z,30.80
2023-04-07T09:37:34.678Z,30.70
2023-04-07T09:40:02.749Z,29.60
2023-04-07T09:42:36.049Z,30.30
2023-04-07T09:45:04.027Z,29.60
2023-04-07T09:47:32.822Z,31.60
2023-04-07T09:50:06.666Z,31.60
2023-04-07T09:52:54.545Z,30.60
2023-04-07T09:55:23.163Z,30.50
2023-04-07T09:57:51.716Z,30.20
2023-04-07T10:00:20.040Z,30.40
2023-04-07T10:02:48.007Z,29.90
2023-04-07T10:05:15.845Z,30.40
2023-04-07T10:07:43.812Z,30.60
2023-04-07T10:10:11.532Z,30.50
2023-04-07T10:12:39.351Z,32.00
2023-04-07T10:15:07.599Z,32.00
2023-04-07T10:17:36.748Z,32.70
2023-04-07T10:20:05.389Z,34.50
2023-04-07T10:22:33.484Z,35.00
2023-04-07T10:25:12.123Z,35.30
2023-04-07T10:27:50.364Z,35.40
2023-04-07T10:30:23.546Z,35.00
2023-04-07T10:32:53.576Z,36.70
2023-04-07T10:35:22.198Z,35.70
2023-04-07T10:38:08.634Z,34.50
2023-04-07T10:40:37.930Z,35.30
2023-04-07T10:43:09.708Z,34.50
2023-04-07T10:45:47.403Z,35.00
2023-04-07T10:48:19.495Z,36.30
2023-04-07T10:51:08.292Z,36.40
2023-04-07T10:53:36.143Z,35.00
2023-04-07T10:56:04.469Z,35.70
2023-04-07T10:58:33.357Z,34.20
2023-04-07T11:01:01.405Z,33.70
2023-04-07T11:03:30.890Z,35.20
2023-04-07T11:06:09.492Z,34.40
2023-04-07T11:08:49.456Z,35.60
2023-04-07T11:11:35.669Z,37.90
2023-04-07T11:14:03.292Z,38.20
2023-04-07T11:16:42.592Z,39.60
2023-04-07T11:19:10.518Z,39.90
2023-04-07T11:21:39.975Z,41.40
2023-04-07T11:24:07.630Z,42.80
2023-04-07T11:26:40.114Z,45.00
2023-04-07T11:29:08.374Z,43.70
2023-04-07T11:31:36.348Z,45.10
2023-04-07T11:34:05.091Z,44.60
2023-04-07T11:36:35.437Z,45.60
2023-04-07T11:39:03.830Z,44.60
2023-04-07T11:41:32.897Z,45.80
2023-04-07T11:44:11.463Z,48.10
2023-04-07T11:46:55.590Z,47.90
2023-04-07T11:49:24.449Z,49.00
2023-04-07T11:52:03.187Z,48.80
2023-04-07T11:54:46.834Z,49.40
2023-04-07T11:57:14.798Z,51.40
2023-04-07T11:59:42.502Z,49.10
2023-04-07T12:02:10.441Z,49.30
2023-04-07T12:04:40.803Z,49.90
2023-04-07T12:07:11.913Z,49.40
2023-04-07T12:09:40.108Z,49.80
2023-04-07T12:12:08.717Z,52.00
2023-04-07T12:14:37.072Z,51.90
2023-04-07T12:17:04.807Z,52.40
2023-04-07T12:19:34.833Z,51.40
2023-04-07T12:22:02.518Z,50.30
2023-04-07T12:24:32.284Z,49.90
2023-04-07T12:27:00.005Z,50.40
2023-04-07T12:29:27.952Z,49.20
2023-04-07T12:31:56.527Z,48.70
2023-04-07T12:34:24.379Z,49.80
2023-04-07T12:36:52.378Z,50.80
2023-04-07T12:39:19.995Z,49.90
2023-04-07T12:41:48.648Z,52.60
2023-04-07T12:44:16.663Z,49.70
2023-04-07T12:46:44.398Z,50.10
2023-04-07T12:49:12.172Z,51.50
2023-04-07T12:51:40.400Z,50.40
2023-04-07T12:54:08.275Z,51.30
2023-04-07T12:56:36.304Z,50.80
2023-04-07T12:59:04.040Z,51.80
2023-04-07T13:01:32.245Z,52.90
2023-04-07T13:04:00.165Z,52.20
2023-04-07T13:06:27.919Z,50.70
2023-04-07T13:08:56.451Z,52.20
2023-04-07T13:11:24.100Z,50.70
2023-04-07T13:13:53.197Z,52.10
2023-04-07T13:16:22.639Z,53.10
2023-04-07T13:18:50.265Z,56.40
2023-04-07T13:23:50.502Z,55.60
2023-04-07T13:26:18.205Z,53.90
2023-04-07T13:28:46.179Z,56.10
2023-04-07T13:31:16.158Z,57.20
2023-04-07T13:33:44.347Z,56.80
2023-04-07T13:36:12.018Z,57.40
2023-04-07T13:38:39.629Z,57.90
2023-04-07T13:41:07.588Z,58.30
2023-04-07T13:43:35.660Z,59.50
2023-04-07T13:46:04.159Z,63.20
2023-04-07T13:48:33.886Z,62.20
2023-04-07T13:51:02.034Z,62.80
2023-04-07T13:53:29.666Z,63.20
2023-04-07T13:55:57.345Z,64.10
2023-04-07T13:58:25.350Z,64.40
2023-04-07T14:00:52.946Z,62.80
2023-04-07T14:03:20.912Z,62.60
2023-04-07T14:05:48.648Z,61.60
2023-04-07T14:08:16.267Z,63.00
2023-04-07T14:10:43.858Z,63.80
2023-04-07T14:13:11.619Z,61.10
2023-04-07T14:15:39.227Z,61.20
2023-04-07T14:18:07.110Z,59.80
2023-04-07T14:20:34.984Z,60.40
2023-04-07T14:23:02.673Z,59.10
2023-04-07T14:25:30.438Z,58.00
2023-04-07T14:27:58.138Z,56.50
2023-04-07T14:30:26.120Z,58.40
2023-04-07T14:32:53.960Z,58.80
2023-04-07T14:35:21.582Z,55.90
2023-04-07T14:37:49.176Z,59.40
2023-04-07T14:40:16.843Z,55.70
2023-04-07T14:42:44.648Z,54.90
2023-04-07T14:45:12.931Z,50.10
2023-04-07T14:47:40.945Z,51.90
2023-04-07T14:50:08.814Z,156.50
2023-04-07T14:52:36.685Z,175.00
2023-04-07T14:55:04.600Z,196.90
2023-04-07T14:57:32.203Z,133.50
2023-04-07T14:59:59.794Z,51.90
2023-04-07T15:02:29.315Z,44.70
2023-04-07T15:04:57.161Z,55.80
2023-04-07T15:07:25.206Z,46.00
2023-04-07T15:09:52.840Z,62.80
2023-04-07T15:12:20.503Z,42.70
2023-04-07T15:14:52.209Z,37.40
2023-04-07T15:17:27.573Z,62.90
2023-04-07T15:20:01.121Z,33.80
2023-04-07T15:22:30.787Z,31.00
2023-04-07T15:24:59.481Z,23.30
2023-04-07T15:27:27.762Z,25.50
2023-04-07T15:29:56.107Z,18.50
2023-04-07T15:32:23.841Z,17.80
2023-04-07T15:34:51.456Z,17.80
2023-04-07T15:37:19.353Z,16.00
2023-04-07T15:39:48.318Z,14.60
2023-04-07T15:42:15.894Z,12.50
2023-04-07T15:44:43.515Z,11.90
2023-04-07T15:47:11.114Z,11.80
2023-04-07T15:49:39.070Z,12.30
2023-04-07T15:52:06.705Z,12.10
2023-04-07T15:54:34.299Z,13.30
2023-04-07T15:57:01.881Z,13.80
2023-04-07T15:59:31.015Z,14.10
2023-04-07T16:01:59.299Z,12.80
2023-04-07T16:04:26.963Z,11.80
2023-04-07T16:06:54.629Z,11.90
2023-04-07T16:09:22.267Z,12.70
2023-04-07T16:11:49.907Z,14.20
2023-04-07T16:14:17.519Z,15.30
2023-04-07T16:16:45.276Z,15.60
2023-04-07T16:19:14.653Z,14.70
2023-04-07T16:21:42.641Z,16.30
2023-04-07T16:24:10.235Z,18.20
2023-04-07T16:26:37.864Z,6.90
2023-04-07T16:29:05.629Z,5.40
2023-04-07T16:31:33.323Z,5.00
2023-04-07T16:34:01.772Z,5.20
2023-04-07T16:36:29.373Z,5.00
2023-04-07T16:38:57.651Z,5.40
2023-04-07T16:41:25.268Z,5.30
2023-04-07T16:43:53.007Z,4.90
2023-04-07T16:46:20.709Z,5.20
2023-04-07T16:48:48.413Z,4.80
2023-04-07T16:51:17.698Z,5.10
2023-04-07T16:53:45.499Z,5.60
2023-04-07T16:56:19.689Z,6.00
2023-04-07T16:58:51.328Z,6.90
2023-04-07T17:01:19.036Z,7.30
2023-04-07T17:03:48.917Z,7.90
2023-04-07T17:06:17.013Z,8.50
2023-04-07T17:08:44.849Z,9.10
2023-04-07T17:11:13.183Z,8.80
2023-04-07T17:13:41.131Z,8.40
2023-04-07T17:16:14.243Z,8.70
2023-04-07T17:18:42.216Z,8.60
2023-04-07T17:21:09.854Z,9.10
2023-04-07T17:23:37.483Z,10.60
2023-04-07T17:26:05.372Z,10.70
2023-04-07T17:28:33.054Z,12.00
2023-04-07T17:31:02.070Z,12.40
2023-04-07T17:33:30.721Z,12.40
2023-04-07T17:36:02.313Z,12.00
2023-04-07T17:38:30.967Z,12.80
2023-04-07T17:40:59.631Z,12.90
2023-04-07T17:43:28.661Z,12.70
2023-04-07T17:45:56.639Z,12.50
2023-04-07T17:48:24.353Z,13.60
2023-04-07T17:50:52.049Z,14.70
2023-04-07T17:53:19.885Z,13.90
2023-04-07T17:55:47.728Z,14.30
2023-04-07T17:58:15.777Z,14.80
2023-04-07T18:00:43.399Z,15.30
2023-04-07T18:03:11.625Z,13.80
2023-04-07T18:05:46.479Z,15.00
2023-04-07T18:08:14.936Z,15.60
2023-04-07T18:10:43.321Z,15.20
2023-04-07T18:13:11.610Z,16.80
2023-04-07T18:15:39.827Z,18.60
2023-04-07T18:18:07.529Z,16.90
2023-04-07T18:20:36.146Z,19.20
2023-04-07T18:23:09.528Z,19.40
2023-04-07T18:25:37.667Z,20.00
2023-04-07T18:28:05.370Z,19.30
2023-04-07T18:30:33.060Z,19.20
2023-04-07T18:33:00.925Z,19.50
2023-04-07T18:35:28.814Z,21.30
2023-04-07T18:37:59.045Z,19.90
2023-04-07T18:40:26.866Z,21.10
2023-04-07T18:42:55.486Z,21.70
2023-04-07T18:45:23.449Z,25.50
2023-04-07T18:47:51.208Z,25.20
2023-04-07T18:50:19.796Z,26.30
2023-04-07T18:52:47.446Z,27.70
2023-04-07T18:55:15.399Z,27.10
2023-04-07T18:57:43.341Z,24.70
2023-04-07T19:00:11.054Z,22.10
2023-04-07T19:02:44.257Z,22.10
2023-04-07T19:05:12.340Z,22.10
2023-04-07T19:07:40.302Z,20.90
2023-04-07T19:10:09.330Z,21.20
2023-04-07T19:12:37.202Z,20.20
2023-04-07T19:15:05.909Z,20.80
2023-04-07T19:17:33.898Z,22.30
2023-04-07T19:20:02.296Z,22.30
2023-04-07T19:22:30.060Z,23.90
2023-04-07T19:24:57.655Z,24.20
2023-04-07T19:27:25.754Z,24.30
2023-04-07T19:29:53.384Z,23.80
2023-04-07T19:32:21.469Z,23.60
2023-04-07T19:34:49.110Z,24.20
2023-04-07T19:37:16.759Z,23.50
2023-04-07T19:40:01.544Z,23.50
2023-04-07T19:42:31.179Z,22.50
2023-04-07T19:45:01.254Z,22.20
2023-04-07T19:47:29.225Z,22.50
2023-04-07T19:49:57.034Z,22.90
2023-04-07T19:52:24.882Z,21.40
2023-04-07T19:54:52.707Z,20.60
2023-04-07T19:57:20.401Z,20.00
2023-04-07T19:59:48.647Z,19.60
2023-04-07T20:02:16.439Z,18.70
2023-04-07T20:04:44.286Z,19.50
2023-04-07T20:07:11.930Z,18.60
2023-04-07T20:09:39.592Z,19.70
2023-04-07T20:12:07.172Z,17.40
2023-04-07T20:14:34.789Z,17.90
2023-04-07T20:17:02.449Z,17.10
2023-04-07T20:19:30.364Z,17.00
2023-04-07T20:21:58.056Z,16.10
2023-04-07T20:24:26.017Z,16.60
2023-04-07T20:26:53.650Z,17.10
2023-04-07T20:29:22.358Z,16.90
2023-04-07T20:31:50.129Z,17.60
2023-04-07T20:34:17.897Z,17.80
2023-04-07T20:36:45.653Z,17.00
2023-04-07T20:39:13.300Z,18.30
2023-04-07T20:41:42.936Z,18.80
2023-04-07T20:44:11.018Z,19.10
2023-04-07T20:46:38.696Z,19.10
2023-04-07T20:49:08.032Z,19.30
2023-04-07T20:51:36.695Z,19.40
2023-04-07T20:54:04.469Z,21.10
2023-04-07T20:56:32.180Z,21.90
2023-04-07T20:58:59.799Z,19.60
2023-04-07T21:01:27.512Z,20.60
2023-04-07T21:03:55.220Z,21.30
2023-04-07T21:06:22.977Z,20.20
2023-04-07T21:08:50.722Z,21.40
2023-04-07T21:11:18.532Z,21.50
2023-04-07T21:13:46.124Z,21.20
2023-04-07T21:16:13.927Z,21.10
2023-04-07T21:18:41.560Z,21.80
2023-04-07T21:21:09.238Z,21.40
2023-04-07T21:23:36.977Z,22.70
2023-04-07T21:26:04.628Z,22.40
2023-04-07T21:28:32.399Z,22.70
2023-04-07T21:31:01.196Z,21.30
2023-04-07T21:33:28.884Z,21.60
2023-04-07T21:35:56.615Z,21.20
2023-04-07T21:38:24.245Z,21.50
2023-04-07T21:40:51.849Z,19.10
2023-04-07T21:43:19.572Z,19.20
2023-04-07T21:45:47.195Z,21.50
2023-04-07T21:48:16.187Z,20.90
2023-04-07T21:50:43.793Z,20.40
2023-04-07T21:53:11.395Z,20.70
2023-04-07T21:55:39.142Z,20.50
2023-04-07T21:58:06.785Z,19.50
2023-04-07T22:00:34.759Z,19.20
2023-04-07T22:03:02.543Z,19.20
2023-04-07T22:05:30.475Z,18.10
2023-04-07T22:07:58.621Z,19.10
2023-04-07T22:10:26.438Z,18.70
2023-04-07T22:12:54.098Z,17.90
2023-04-07T22:15:22.146Z,18.20
2023-04-07T22:17:49.764Z,17.20
2023-04-07T22:20:17.773Z,17.60
2023-04-07T22:22:46.452Z,18.30
2023-04-07T22:25:14.218Z,18.70
2023-04-07T22:27:41.834Z,17.90
2023-04-07T22:30:10.810Z,19.20
2023-04-07T22:32:38.571Z,18.40
2023-04-07T22:35:06.695Z,18.10
2023-04-07T22:37:34.298Z,18.80
2023-04-07T22:40:02.137Z,17.10
2023-04-07T22:42:30.350Z,19.00
2023-04-07T22:44:57.912Z,19.30
2023-04-07T22:47:25.658Z,19.40
2023-04-07T22:49:53.262Z,20.00
2023-04-07T22:52:20.858Z,20.30
2023-04-07T22:54:48.464Z,19.70
2023-04-07T22:57:16.482Z,20.30
2023-04-07T22:59:44.104Z,20.70
2023-04-07T23:02:12.078Z,19.90
2023-04-07T23:04:39.778Z,20.60
2023-04-07T23:07:07.651Z,21.60
2023-04-07T23:09:35.320Z,21.10
2023-04-07T23:12:03.116Z,22.80
2023-04-07T23:14:30.782Z,23.80
2023-04-07T23:16:58.635Z,22.60
2023-04-07T23:19:26.324Z,23.00
2023-04-07T23:21:54.264Z,24.10
2023-04-07T23:24:21.880Z,25.10
2023-04-07T23:26:49.457Z,26.20
2023-04-07T23:29:17.057Z,26.80
2023-04-07T23:31:44.706Z,27.80
2023-04-07T23:34:12.347Z,28.70
2023-04-07T23:36:39.990Z,28.00
2023-04-07T23:39:07.646Z,25.80
2023-04-07T23:41:35.236Z,26.10
2023-04-07T23:44:03.756Z,27.20
2023-04-07T23:46:31.387Z,25.40
2023-04-07T23:48:59.083Z,25.50
2023-04-07T23:51:27.693Z,24.80
2023-04-07T23:53:55.626Z,25.70
2023-04-07T23:56:23.690Z,24.50
2023-04-07T23:58:51.501Z,25.80
